aviador You're here:

GCFV Decoded Metar

FUERTEVENTURA in SPAIN
Report Time2017-08-22 08:30:00
UTC Time2017-08-22 08:57:51
Flight Rules vfr VFR
WindVRB at 02 kt
Visibility9999 m
Phenomena:N/A
Clouds:N/A
Expected CloudBase > 2,000 ft AGL from Temp-Dew spread
CeilingNone
Temp26°C (ISA +11)
Dew Point21°C (74% RH)
QNH1014 hPa
Density Alt1,657 ft
Elevation75 ft
Report Wrong Elevation
Raw Report
GCFV 220830Z VRB02KT CAVOK 26/21 Q1014=

Extra information for GCFV:More info

Metar Taf Metar & Taf Last 4 Metars F.Rules Stats Wind Profile Meteogram Temp Stats Airport Information Weather charts Add Link Nearby VenuesMetar ALERT Operation Metar Decoded Social comments